»·PEaware :: N6788U KSBP-KSBP

N6788U :: KSBP-KSBP

FLIGHT INFORMATION

Flight Status: Arrived
Operator: Privately registered:
United States
More flights under this callsign
Pilot: Larry H. (26814)
Aircraft: MOONEY M-20 201 202 205 220 ATS MSE
(M20P)
More flights by this aircraft type
Origin: KSBP San Luis Co Regl
United States
Destination: KSBP San Luis Co Regl
United States
More flights between these airports :: More routes between these airports
Route:
File this flight plan on PilotEdge
Remarks:
Altitude:
(Current/Filed)
1,200ft
Speed:
(Current/Filed)
120kts
Departed: 11-Feb-20 05:50 PM
Arrived: 11-Feb-20 06:10 PM
Distance/Time
Traveled:
0nm/0:20
Distance/Time
To Go:
Arrived

Flight Plot

Page will automatically refresh every two minutes.


Map Options




Map Legend


Flown Route
Filed Route
Departure Airport
Arrival Airport
Navaid (VOR, NDB)
Fix

Horizontal Profiles

Position Reports

Time Latitude Longitude Heading Altitude Ground
Speed
11-Feb-20 17:17 35.237509 -120.638865 148 215ft 0kts
11-Feb-20 17:18 35.237509 -120.638865 148 215ft 0kts
11-Feb-20 17:19 35.237509 -120.638865 148 215ft 0kts
11-Feb-20 17:20 35.237509 -120.638865 148 215ft 0kts
11-Feb-20 17:21 35.237509 -120.638865 148 215ft 0kts
11-Feb-20 17:22 35.237509 -120.638865 148 215ft 0kts
11-Feb-20 17:23 35.237509 -120.638865 148 215ft 0kts
11-Feb-20 17:24 35.237509 -120.638865 148 215ft 0kts
11-Feb-20 17:25 35.237509 -120.638865 148 215ft 0kts
11-Feb-20 17:26 35.237509 -120.638865 148 215ft 0kts
11-Feb-20 17:27 35.237509 -120.638865 148 215ft 0kts
11-Feb-20 17:28 35.237509 -120.638865 148 215ft 0kts
11-Feb-20 17:29 35.237509 -120.638865 148 215ft 0kts
11-Feb-20 17:30 35.237509 -120.638865 148 215ft 0kts
11-Feb-20 17:31 35.237509 -120.638865 148 215ft 0kts
11-Feb-20 17:32 35.237509 -120.638865 148 215ft 0kts
11-Feb-20 17:33 35.237509 -120.638865 148 215ft 0kts
11-Feb-20 17:34 35.237509 -120.638865 148 215ft 0kts
11-Feb-20 17:35 35.237509 -120.638865 148 215ft 0kts
11-Feb-20 17:35 35.237509 -120.638865 148 215ft 0kts
11-Feb-20 17:37 35.237509 -120.638865 148 215ft 0kts
11-Feb-20 17:38 35.237509 -120.638865 148 215ft 0kts
11-Feb-20 17:38 35.237509 -120.638865 148 215ft 0kts
11-Feb-20 17:39 35.237509 -120.638865 148 215ft 0kts
11-Feb-20 17:41 35.237509 -120.638865 148 215ft 0kts
11-Feb-20 17:41 35.237509 -120.638865 148 215ft 0kts
11-Feb-20 17:42 35.237509 -120.638865 148 215ft 0kts
11-Feb-20 17:44 35.237509 -120.638865 148 215ft 0kts
11-Feb-20 17:44 35.237509 -120.638865 148 215ft 0kts
11-Feb-20 17:45 35.236869 -120.638263 129 215ft 12kts
11-Feb-20 17:46 35.233791 -120.632874 123 215ft 19kts
11-Feb-20 17:47 35.233339 -120.632402 202 215ft 0kts
11-Feb-20 17:48 35.233111 -120.632525 204 215ft 7kts
11-Feb-20 17:49 35.239926 -120.645517 305 215ft 99kts
11-Feb-20 17:50 35.257899 -120.663416 41 1038ft 98kts
11-Feb-20 17:51 35.255534 -120.634723 124 1013ft 114kts
11-Feb-20 17:52 35.238938 -120.603114 122 1122ft 85kts
11-Feb-20 17:53 35.225865 -120.578168 123 1130ft 89kts
11-Feb-20 17:54 35.204155 -120.578862 247 658ft 105kts
11-Feb-20 17:55 35.218289 -120.607664 306 576ft 96kts
11-Feb-20 17:56 35.233821 -120.634849 305 216ft 88kts
11-Feb-20 17:57 35.247935 -120.660185 306 737ft 91kts
11-Feb-20 17:58 35.260442 -120.643383 123 1140ft 111kts
11-Feb-20 17:59 35.242680 -120.611427 124 1092ft 102kts
11-Feb-20 18:00 35.224154 -120.589702 208 968ft 103kts
11-Feb-20 18:01 35.224088 -120.617530 303 507ft 89kts
11-Feb-20 18:02 35.237728 -120.641577 303 228ft 95kts
11-Feb-20 18:03 35.255792 -120.664503 42 992ft 104kts
11-Feb-20 18:04 35.257989 -120.637100 125 1055ft 108kts
11-Feb-20 18:05 35.241128 -120.606061 123 1043ft 106kts
11-Feb-20 18:06 35.224428 -120.577977 165 1090ft 95kts
11-Feb-20 18:07 35.214446 -120.599853 304 624ft 94kts
11-Feb-20 18:08 35.228564 -120.625558 303 270ft 87kts
11-Feb-20 18:09 35.238873 -120.643688 309 215ft 28kts
11-Feb-20 18:10 35.239922 -120.643755 101 215ft 5kts
11-Feb-20 18:11 35.236904 -120.638079 97 215ft 22kts
11-Feb-20 18:12 35.237387 -120.637147 36 215ft 0kts

Navigation Log

Ident Type
Flight plan parsing failed, navigation log unavailable